Time;durP1;ratioP1;P1;durP2;ratioP2;P2;SDS_P1;SDS_P2;PMS_P1;PMS_P2;Temp;Humidity;BMP_temperature;BMP_pressure;BME280_temperature;BME280_humidity;BME280_pressure;Samples;Min_cycle;Max_cycle;Signal;HPM_P1;HPM_P2
2022/10/31 00:07:25;;;;;;;1.30;1.20;;;;;;;17.55;100.00;101658.31;20805201;28;20061;-84
2022/10/31 00:17:26;;;;;;;1.50;1.40;;;;;;;17.77;100.00;101697.94;20802915;28;20128;-84
2022/10/31 00:27:28;;;;;;;1.63;1.30;;;;;;;17.54;100.00;101681.66;20791282;28;20140;-84
2022/10/31 00:37:29;;;;;;;1.85;1.30;;;;;;;17.77;100.00;101724.00;20808941;28;20076;-84
2022/10/31 00:47:31;;;;;;;1.33;1.23;;;;;;;17.52;100.00;101675.53;20777924;28;20451;-84
2022/10/31 00:57:32;;;;;;;2.00;1.50;;;;;;;17.76;100.00;101717.75;20791089;28;20129;-84
2022/10/31 01:07:38;;;;;;;1.60;1.38;;;;;;;17.67;100.00;101718.44;20797479;28;20409;-85
2022/10/31 01:17:42;;;;;;;2.03;1.30;;;;;;;16.93;100.00;101588.34;20809484;28;20498;-84
2022/10/31 01:27:46;;;;;;;2.00;1.45;;;;;;;17.42;100.00;101669.13;20805896;28;20046;-84
2022/10/31 01:37:47;;;;;;;1.40;1.30;;;;;;;16.98;100.00;101603.31;20803219;28;20099;-84
2022/10/31 01:47:49;;;;;;;1.40;1.25;;;;;;;17.33;100.00;101678.72;20791290;28;20045;-84
2022/10/31 01:57:53;;;;;;;1.60;1.50;;;;;;;17.65;100.00;101742.78;20715303;28;20476;-84
2022/10/31 02:08:07;;;;;;;1.75;1.48;;;;;;;17.75;100.00;101737.59;20785943;28;20144;-84
2022/10/31 02:18:09;;;;;;;0.90;0.90;;;;;;;16.64;100.00;101553.69;20721148;28;20578;-83
2022/10/31 02:28:19;;;;;;;1.30;1.20;;;;;;;17.74;100.00;101740.38;20690535;28;20085;-84
2022/10/31 02:38:26;;;;;;;1.15;1.00;;;;;;;17.73;100.00;101720.69;20715169;28;20050;-84
2022/10/31 02:48:32;;;;;;;1.77;1.67;;;;;;;17.56;100.00;101694.16;20698108;28;20080;-84
2022/10/31 02:58:38;;;;;;;1.30;1.20;;;;;;;17.23;100.00;101634.66;20715633;28;20053;-84
2022/10/31 03:08:52;;;;;;;1.70;1.20;;;;;;;17.73;100.00;101709.91;20795050;28;20045;-84
2022/10/31 03:19:19;;;;;;;1.13;1.02;;;;;;;17.73;100.00;101720.69;20803707;28;20065;-84
2022/10/31 03:29:25;;;;;;;1.20;1.10;;;;;;;17.29;100.00;101668.31;20800326;28;20095;-84
2022/10/31 03:39:28;;;;;;;1.55;1.10;;;;;;;17.72;100.00;101737.81;20796622;28;20081;-83
2022/10/31 03:49:30;;;;;;;1.27;1.17;;;;;;;15.56;100.00;101390.34;20769950;28;20042;-84
2022/10/31 03:59:35;;;;;;;1.35;1.20;;;;;;;17.59;100.00;101732.50;20771687;28;20091;-83
2022/10/31 04:09:38;;;;;;;1.33;1.17;;;;;;;17.71;100.00;101749.56;20790341;28;20055;-84
2022/10/31 04:19:40;;;;;;;1.52;1.20;;;;;;;17.71;100.00;101741.50;20780650;28;20049;-84
2022/10/31 04:29:41;;;;;;;1.45;1.20;;;;;;;16.58;100.00;101556.84;20778239;28;20099;-84
2022/10/31 04:39:48;;;;;;;1.20;1.10;;;;;;;17.70;100.00;101750.53;20797701;28;20079;-83
2022/10/31 04:50:22;;;;;;;1.52;1.20;;;;;;;17.28;100.00;101680.91;20804652;28;20045;-84
2022/10/31 05:00:25;;;;;;;1.20;1.10;;;;;;;17.34;100.00;101695.75;20795029;28;20053;-84
2022/10/31 05:10:28;;;;;;;1.00;0.90;;;;;;;17.67;100.00;101740.84;20740827;28;20095;-84
2022/10/31 05:20:32;;;;;;;1.20;1.00;;;;;;;17.69;100.00;101746.13;20802961;28;20071;-84
2022/10/31 05:30:49;;;;;;;1.00;0.95;;;;;;;17.68;100.00;101744.41;20778178;28;20064;-84
2022/10/31 05:40:57;;;;;;;1.10;1.00;;;;;;;17.66;100.00;101732.88;20796546;28;20078;-83
2022/10/31 05:50:59;;;;;;;1.08;0.98;;;;;;;17.67;100.00;101761.50;20718114;28;20114;-84
2022/10/31 06:01:01;;;;;;;0.80;0.80;;;;;;;16.89;100.00;101620.94;20749500;28;20132;-84
2022/10/31 06:11:02;;;;;;;1.10;0.90;;;;;;;17.66;100.00;101744.50;20762722;28;20502;-84
2022/10/31 06:21:39;;;;;;;1.20;1.10;;;;;;;17.66;100.00;101746.34;20681995;28;20042;-84
2022/10/31 06:31:41;;;;;;;0.82;0.82;;;;;;;17.22;100.00;101671.44;20731434;28;20057;-85
2022/10/31 06:41:43;;;;;;;2.15;1.10;;;;;;;17.68;100.00;101741.72;20786543;28;20526;-81
2022/10/31 06:51:47;;;;;;;2.47;1.02;;;;;;;17.76;100.00;101744.69;20769803;28;20076;-83
2022/10/31 07:01:50;;;;;;;;;;;;;;;17.80;100.00;101746.19;20794409;28;20045;-83
2022/10/31 07:11:52;;;;;;;1.38;1.00;;;;;;;17.63;100.00;101716.94;20817788;28;19974;-82
2022/10/31 07:21:54;;;;;;;2.13;1.42;;;;;;;17.84;100.00;101749.47;20791379;28;20045;-83
2022/10/31 07:31:57;;;;;;;2.00;1.20;;;;;;;17.86;100.00;101757.47;20801271;28;20107;-83
2022/10/31 07:42:02;;;;;;;2.10;1.00;;;;;;;17.88;100.00;101766.28;20779548;28;20069;-82
2022/10/31 07:52:05;;;;;;;2.10;1.17;;;;;;;17.58;100.00;101703.84;20772934;28;20132;-81
2022/10/31 08:02:26;;;;;;;1.90;0.90;;;;;;;17.15;100.00;101639.75;20742168;28;20045;-81
2022/10/31 08:13:10;;;;;;;2.65;1.08;;;;;;;17.91;100.00;101766.06;20767232;28;20408;-81
2022/10/31 08:23:15;;;;;;;1.40;1.20;;;;;;;17.70;100.00;101734.38;20757162;28;20053;-81
2022/10/31 08:33:18;;;;;;;1.50;1.08;;;;;;;17.96;100.00;101772.84;20771827;28;20047;-83
2022/10/31 08:43:38;;;;;;;1.73;1.20;;;;;;;18.03;100.00;101783.19;20780529;28;20045;-82
2022/10/31 08:53:41;;;;;;;1.48;1.20;;;;;;;17.97;100.00;101770.97;20770973;28;20061;-81
2022/10/31 09:04:01;;;;;;;3.55;1.90;;;;;;;17.61;100.00;101686.59;20797219;28;20045;-85
2022/10/31 09:14:02;;;;;;;2.92;1.77;;;;;;;18.13;100.00;101775.25;20770237;28;20053;-81
2022/10/31 09:24:13;;;;;;;4.25;1.60;;;;;;;18.07;100.00;101769.34;20765818;28;20049;-82
2022/10/31 09:34:16;;;;;;;3.45;1.90;;;;;;;17.82;100.00;101724.50;20749741;28;20046;-82
2022/10/31 09:44:51;;;;;;;15.15;2.30;;;;;;;18.18;100.00;101775.78;20755244;28;20076;-83
2022/10/31 09:55:09;;;;;;;5.28;2.30;;;;;;;18.21;100.00;101753.97;20754181;28;20121;-82
2022/10/31 10:05:13;;;;;;;4.55;2.10;;;;;;;18.22;100.00;101766.47;20687658;28;20528;-82
2022/10/31 10:15:24;;;;;;;6.45;2.58;;;;;;;18.21;100.00;101760.19;20760892;28;20064;-90
2022/10/31 10:25:32;;;;;;;7.13;4.72;;;;;;;18.18;100.00;101754.22;20778848;28;20049;-84
2022/10/31 10:35:36;;;;;;;6.00;3.55;;;;;;;18.16;100.00;101740.00;20762717;28;20060;-80
2022/10/31 10:56:17;;;;;;;4.65;2.67;;;;;;;18.13;100.00;101724.06;20768535;28;20128;-80
2022/10/31 11:06:25;;;;;;;6.78;2.70;;;;;;;18.06;100.00;101694.88;20764418;28;20487;-80
2022/10/31 11:16:33;;;;;;;5.03;2.60;;;;;;;17.21;100.00;101528.97;20765790;28;20151;-80
2022/10/31 11:26:44;;;;;;;3.67;2.10;;;;;;;18.15;100.00;101662.81;20765344;28;20095;-81
2022/10/31 11:36:45;;;;;;;3.75;2.45;;;;;;;18.15;100.00;101668.22;20769400;28;20136;-81
2022/10/31 11:46:50;;;;;;;5.80;2.83;;;;;;;17.99;100.00;101623.53;20757539;28;20045;-81
2022/10/31 11:56:51;;;;;;;4.50;2.37;;;;;;;17.94;100.00;101612.28;20775525;28;20737;-81
2022/10/31 12:06:54;;;;;;;3.55;2.00;;;;;;;17.94;100.00;101613.16;20787786;28;20521;-81
2022/10/31 12:17:08;;;;;;;3.80;1.95;;;;;;;18.20;100.00;101594.09;20794110;28;20049;-80
2022/10/31 12:27:40;;;;;;;2.78;1.80;;;;;;;18.21;100.00;101562.63;20786050;28;20058;-80
2022/10/31 12:38:05;;;;;;;3.92;2.22;;;;;;;18.21;100.00;101517.66;20808628;28;20046;-80
2022/10/31 12:48:36;;;;;;;3.23;1.63;;;;;;;18.20;100.00;101518.63;20825997;28;20049;-79
2022/10/31 12:58:47;;;;;;;3.45;1.60;;;;;;;18.22;100.00;101470.84;20799476;28;20049;-79
2022/10/31 13:08:57;;;;;;;3.60;1.60;;;;;;;17.91;99.60;101410.47;20788201;28;20548;-80
2022/10/31 13:19:20;;;;;;;2.08;1.50;;;;;;;18.25;99.12;101440.09;20826218;28;20065;-80
2022/10/31 13:29:26;;;;;;;3.13;1.92;;;;;;;18.15;98.75;101428.38;20816313;28;20045;-80
2022/10/31 13:39:44;;;;;;;4.22;1.83;;;;;;;18.19;98.44;101421.75;20809934;28;20049;-79
2022/10/31 13:49:46;;;;;;;6.88;1.90;;;;;;;18.26;98.03;101417.56;20706561;28;20076;-80
2022/10/31 13:59:57;;;;;;;2.20;1.40;;;;;;;18.18;98.11;101393.09;20807231;28;20049;-80
2022/10/31 14:10:02;;;;;;;3.05;1.30;;;;;;;18.09;97.96;101373.97;20784507;28;20418;-79
2022/10/31 14:20:10;;;;;;;3.70;1.55;;;;;;;18.23;98.06;101363.91;20803174;28;20402;-79
2022/10/31 14:30:17;;;;;;;2.55;1.23;;;;;;;18.23;98.00;101359.38;20796922;28;20045;-79
2022/10/31 14:40:40;;;;;;;1.98;1.15;;;;;;;18.23;97.99;101347.75;20746338;28;20052;-78
2022/10/31 14:50:50;;;;;;;2.28;1.63;;;;;;;18.21;97.98;101328.16;20802736;28;20557;-79
2022/10/31 15:00:55;;;;;;;2.58;1.13;;;;;;;18.22;98.04;101319.09;20773391;28;20058;-79
2022/10/31 15:10:56;;;;;;;;;;;;;;;18.21;97.60;101309.28;20775179;28;20053;-79
2022/10/31 15:20:58;;;;;;;3.38;1.30;;;;;;;18.20;97.88;101294.94;20770203;28;19956;-78
2022/10/31 15:31:01;;;;;;;2.72;1.30;;;;;;;18.21;97.92;101279.66;20781727;28;20103;-79
2022/10/31 15:41:06;;;;;;;3.10;1.30;;;;;;;17.85;97.74;101206.28;20792607;28;20132;-80
2022/10/31 15:51:07;;;;;;;1.90;1.33;;;;;;;18.14;98.45;101235.34;20788464;28;20061;-83
2022/10/31 16:01:23;;;;;;;1.70;1.00;;;;;;;17.97;99.18;101208.81;20782869;28;20111;-82
2022/10/31 16:11:36;;;;;;;3.60;1.85;;;;;;;18.18;99.92;101221.47;20775692;28;20053;-80
2022/10/31 16:21:38;;;;;;;15.60;5.45;;;;;;;17.90;100.00;101174.44;20759956;28;20053;-83
2022/10/31 16:31:40;;;;;;;12.30;4.43;;;;;;;18.21;100.00;101215.81;20787859;28;20068;-83
2022/10/31 16:41:46;;;;;;;12.95;4.07;;;;;;;18.22;100.00;101216.69;20779735;28;20072;-82
2022/10/31 16:51:50;;;;;;;9.80;4.50;;;;;;;18.22;100.00;101208.59;20778575;28;20050;-83
2022/10/31 17:01:51;;;;;;;14.52;5.45;;;;;;;18.09;100.00;101163.81;20763958;28;20053;-83
2022/10/31 17:11:53;;;;;;;12.48;4.78;;;;;;;17.80;100.00;101099.81;20773833;28;20418;-79
2022/10/31 17:21:54;;;;;;;14.02;5.30;;;;;;;17.92;100.00;101092.53;20747429;28;20517;-80
2022/10/31 17:31:56;;;;;;;8.85;3.92;;;;;;;17.85;100.00;101061.69;20739571;28;20623;-82
2022/10/31 17:41:57;;;;;;;11.10;4.55;;;;;;;18.24;100.00;101112.31;20807008;28;20133;-81
2022/10/31 17:51:59;;;;;;;11.25;4.70;;;;;;;18.15;100.00;101078.09;20787625;28;20056;-82
2022/10/31 18:02:01;;;;;;;7.97;3.90;;;;;;;18.24;100.00;101086.19;20799672;28;20049;-82
2022/10/31 18:12:04;;;;;;;7.53;4.32;;;;;;;18.23;100.00;101062.94;20779215;28;20123;-82
2022/10/31 18:22:05;;;;;;;6.80;4.72;;;;;;;18.19;100.00;101049.88;20701095;28;20057;-82
2022/10/31 18:32:08;;;;;;;6.88;4.43;;;;;;;17.65;100.00;100955.72;20712304;28;20145;-82
2022/10/31 18:42:10;;;;;;;6.82;4.35;;;;;;;17.79;100.00;100968.84;20753303;28;20150;-82
2022/10/31 18:52:11;;;;;;;8.15;4.70;;;;;;;18.06;100.00;100997.06;20740596;28;20060;-82
2022/10/31 19:02:16;;;;;;;9.48;5.05;;;;;;;18.04;100.00;100977.47;20706759;28;20050;-82
2022/10/31 19:12:18;;;;;;;6.70;4.20;;;;;;;18.02;100.00;100957.06;20800972;28;20055;-82
2022/10/31 19:22:19;;;;;;;6.57;4.25;;;;;;;18.00;100.00;100938.31;20799231;28;20045;-82
2022/10/31 19:32:21;;;;;;;6.13;3.53;;;;;;;17.99;100.00;100931.22;20760196;28;20052;-82
2022/10/31 19:42:23;;;;;;;6.75;4.03;;;;;;;17.92;100.00;100913.91;20765622;28;20046;-82
2022/10/31 19:52:24;;;;;;;6.50;3.80;;;;;;;17.96;100.00;100916.19;20802314;28;20075;-82
2022/10/31 20:02:26;;;;;;;5.05;4.10;;;;;;;17.95;100.00;100882.16;20818471;28;20049;-82
2022/10/31 20:12:27;;;;;;;7.30;4.13;;;;;;;17.54;100.00;100792.47;20720643;28;20042;-82
2022/10/31 20:22:29;;;;;;;7.15;4.15;;;;;;;17.95;100.00;100854.38;20726319;28;20100;-82
2022/10/31 20:32:30;;;;;;;5.82;3.45;;;;;;;17.94;100.00;100868.81;20722381;28;20058;-82
2022/10/31 20:42:32;;;;;;;6.68;3.30;;;;;;;17.57;100.00;100792.19;20791604;28;20552;-82
2022/10/31 20:52:33;;;;;;;6.90;3.42;;;;;;;17.80;100.00;100826.97;20831798;28;20041;-82
2022/10/31 21:02:35;;;;;;;5.32;3.63;;;;;;;17.91;100.00;100832.25;20808218;28;20068;-82
2022/10/31 21:12:38;;;;;;;4.90;3.47;;;;;;;17.92;100.00;100830.41;20775201;28;20056;-82
2022/10/31 21:22:39;;;;;;;6.93;4.10;;;;;;;17.90;100.00;100829.69;20801358;28;20045;-82
2022/10/31 21:32:41;;;;;;;5.15;3.90;;;;;;;17.91;100.00;100823.31;20812286;28;20112;-82
2022/10/31 21:42:42;;;;;;;4.97;3.50;;;;;;;17.90;100.00;100824.31;20800914;28;20060;-82
2022/10/31 21:52:44;;;;;;;5.60;3.80;;;;;;;17.90;100.00;100813.53;20772939;28;20410;-82
2022/10/31 22:02:45;;;;;;;4.72;4.15;;;;;;;17.88;100.00;100792.09;20806549;28;20048;-82
2022/10/31 22:12:47;;;;;;;4.93;3.72;;;;;;;17.89;100.00;100790.28;20813838;28;20049;-82
2022/10/31 22:22:49;;;;;;;5.18;3.72;;;;;;;17.88;100.00;100781.34;20811396;28;20077;-83
2022/10/31 22:32:51;;;;;;;5.63;4.22;;;;;;;17.87;100.00;100757.25;20796456;28;20456;-83
2022/10/31 22:42:53;;;;;;;5.72;3.90;;;;;;;17.86;100.00;100742.94;20811211;28;20137;-83
2022/10/31 22:52:54;;;;;;;5.85;3.90;;;;;;;17.86;100.00;100716.00;20800346;28;20060;-82
2022/10/31 23:02:55;;;;;;;6.18;3.92;;;;;;;17.87;100.00;100719.56;20756703;28;20132;-82
2022/10/31 23:23:19;;;;;;;4.85;4.25;;;;;;;17.76;100.00;100691.78;20801329;28;20140;-82
2022/10/31 23:33:20;;;;;;;5.20;4.32;;;;;;;17.25;100.00;100583.34;20793871;28;20053;-82
2022/10/31 23:43:22;;;;;;;5.00;4.10;;;;;;;17.85;100.00;100679.28;20799943;28;20050;-82
2022/10/31 23:53:23;;;;;;;6.03;4.20;;;;;;;17.83;100.00;100663.28;20808355;28;20437;-82
